Terminal Aerodrome Forecast
Issued by NWS

Home | Current Version | Previous Version | Text Only | Print | Product List | Glossary On
Versions: 1 2 3 4 5 6 7 8 9 10 11 12 13 14 15 16 17 18 19 20 21 22 23 24 25 26 27 28
686
FTUS43 KDVN 291130
TAFCID
TAF
KCID 291130Z 2912/3012 06014KT P6SM OVC035
     FM291500 06015G20KT 5SM BR VCSH OVC025
     FM291700 04017G25KT 3SM RA BR OVC012
      TEMPO 2919/2922 2SM SHRA BR
     FM300000 05018G26KT P6SM OVC015
     FM300900 04017KT 5SM BR VCSH OVC010=

USA.gov is the U.S. government's official web portal to all federal, state and local government web resources and services.